Seneimaru — JG5357 — position and weather

sailwx.info

Track history (hours):
 
Tides and Currents Weather Stations Pressure Air Temp Water Temp Dewpoint Dewpoint Depression Visibility Wind Speed Wind Dir Waves Ship Positions

Seneimaru

Last reported at 2014-Nov-23 09:33 UTC. Time now 2014-Nov-23 10:04 UTC.
Position N 35°30' E 139°43'.

Length 72 m; draft 5.9 m.

Type: Cargo ship. MMSI: 431100477.

Date/timePositionNaut miles runAvg speedWind from/ knotsBaromVisibWave heightAir tempDewpointWater temp
2014-Nov-23 09:33N 35°30' E 139°43'0 0.0
2014-Nov-23 08:33N 35°30' E 139°43'0 0.0
2014-Nov-23 07:33N 35°30' E 139°43'0 0.0
2014-Nov-23 06:33N 35°30' E 139°43'0 0.0
2014-Nov-23 05:33N 35°30' E 139°43'0 0.0
2014-Nov-23 04:33N 35°30' E 139°43'0 0.0
2014-Nov-23 03:33N 35°30' E 139°43'0 0.0
2014-Nov-23 02:33N 35°30' E 139°43'0 0.0
2014-Nov-23 01:31N 35°30' E 139°43'0 0.0
2014-Nov-23 00:33N 35°30' E 139°43'0 0.0
2014-Nov-22 23:33N 35°30' E 139°43'0 0.0
2014-Nov-22 22:33N 35°30' E 139°43'0 0.0
2014-Nov-22 21:33N 35°30' E 139°43'4 4.4
2014-Nov-22 20:33N 35°26' E 139°44'2 1.9
2014-Nov-22 19:29N 35°24' E 139°44'0 0.0
2014-Nov-22 18:32N 35°24' E 139°44'0 0.0
2014-Nov-22 17:23N 35°24' E 139°44'0 0.0
2014-Nov-22 16:32N 35°24' E 139°44'7 7.3
2014-Nov-22 15:33N 35°17' E 139°46'2 0.1
2014-Nov-21 04:33N 35°15' E 139°46'1010.1
2014-Nov-21 03:33N 35°25' E 139°44'5 5.0
2014-Nov-21 02:33N 35°30' E 139°43'0 0.4
2014-Nov-21 01:33N 35°30' E 139°43'0 0.0
2014-Nov-21 00:33N 35°30' E 139°43'0 0.0
2014-Nov-20 23:33N 35°30' E 139°43'0 0.0
2014-Nov-20 22:33N 35°30' E 139°43'0 0.0
2014-Nov-20 21:33N 35°30' E 139°43'1 1.0
2014-Nov-20 20:33N 35°29' E 139°43'6 6.2
2014-Nov-20 19:33N 35°23' E 139°45'0 0.0
2014-Nov-20 18:33N 35°23' E 139°45'0 0.0
2014-Nov-20 17:33N 35°23' E 139°44'0 0.0
2014-Nov-20 16:33N 35°23' E 139°44'0 0.0
2014-Nov-20 15:33N 35°23' E 139°44'5 5.4
2014-Nov-20 14:34N 35°18' E 139°45'7 0.2
2014-Nov-19 03:24N 35°11' E 139°46'910.8
2014-Nov-19 02:33N 35°20' E 139°43'1110.0
2014-Nov-19 01:28N 35°30' E 139°46'3 3.2
2014-Nov-19 00:33N 35°30' E 139°43'0 0.0
2014-Nov-18 23:34N 35°30' E 139°43'0 0.0
2014-Nov-18 22:34N 35°30' E 139°43'0 0.0
2014-Nov-18 21:34N 35°30' E 139°43'3 2.8
2014-Nov-18 20:34N 35°27' E 139°43'4 3.8
2014-Nov-18 19:32N 35°24' E 139°45'0 0.0
2014-Nov-18 18:32N 35°24' E 139°44'0 0.0
2014-Nov-18 17:32N 35°24' E 139°45'1 1.3
2014-Nov-18 16:33N 35°23' E 139°44'1210.4
2014-Nov-18 15:22N 35°10' E 139°46'1 0.0
2014-Nov-17 04:15N 35°11' E 139°46'811.0
2014-Nov-17 03:33N 35°18' E 139°44'1010.2
2014-Nov-17 02:33N 35°28' E 139°47'4 3.6
2014-Nov-17 01:33N 35°30' E 139°43'0 0.0
2014-Nov-17 00:33N 35°30' E 139°43'0 0.0
2014-Nov-16 23:33N 35°30' E 139°43'0 0.0
2014-Nov-16 22:33N 35°30' E 139°43'0 0.0
2014-Nov-16 21:33N 35°30' E 139°43'0 0.0
2014-Nov-16 20:33N 35°30' E 139°43'0 0.0
2014-Nov-16 19:33N 35°30' E 139°43'0 0.0
2014-Nov-16 18:33N 35°30' E 139°43'0 0.0
2014-Nov-16 17:33N 35°30' E 139°43'0 0.0
2014-Nov-16 16:33N 35°30' E 139°43'0 0.0
2014-Nov-16 15:33N 35°30' E 139°43'0 0.0
2014-Nov-16 14:33N 35°30' E 139°43'0 0.0
2014-Nov-16 13:33N 35°30' E 139°43'0 0.0
2014-Nov-16 12:33N 35°30' E 139°43'0 0.0
2014-Nov-16 11:33N 35°30' E 139°43'0 0.0
2014-Nov-16 10:33N 35°30' E 139°43'0 0.0
2014-Nov-16 09:33N 35°30' E 139°43'0 0.0
2014-Nov-16 08:33N 35°30' E 139°43'0 0.0
2014-Nov-16 07:33N 35°30' E 139°43'0 0.0
2014-Nov-16 06:33N 35°30' E 139°43'0 0.0
2014-Nov-16 05:33N 35°30' E 139°43'0 0.0
2014-Nov-16 04:33N 35°30' E 139°43'0 0.0
2014-Nov-16 03:33N 35°30' E 139°43'0 0.0
2014-Nov-16 02:33N 35°30' E 139°43'0 0.0
2014-Nov-16 01:33N 35°30' E 139°43'4 3.8
2014-Nov-16 00:33N 35°26' E 139°44'6 5.6
2014-Nov-15 23:33N 35°21' E 139°45'1110.5
2014-Nov-15 22:32N 35°10' E 139°47'1 0.0
2014-Nov-14 09:24N 35°11' E 139°46'910.3
2014-Nov-14 08:33N 35°20' E 139°43'1010.4
2014-Nov-14 07:33N 35°29' E 139°47'4 3.9
2014-Nov-14 06:33N 35°30' E 139°43'0 0.0
2014-Nov-14 05:33N 35°30' E 139°43'0 0.0
2014-Nov-14 04:33N 35°30' E 139°43'0 0.0
2014-Nov-14 03:33N 35°30' E 139°43'4 4.1
2014-Nov-14 02:33N 35°26' E 139°43'3 2.6
2014-Nov-14 01:32N 35°23' E 139°44'0 0.0
2014-Nov-14 00:32N 35°23' E 139°44'0 0.0
2014-Nov-13 23:32N 35°23' E 139°44'8 7.8
2014-Nov-13 22:31N 35°16' E 139°46'  
Track history (hours):
 
Tides and Currents Weather Stations Pressure Air Temp Water Temp Dewpoint Dewpoint Depression Visibility Wind Speed Wind Dir Waves Ship Positions

Seneimaru

Last reported at 2014-Nov-23 09:33 UTC. Time now 2014-Nov-23 10:04 UTC.
Position N 35°30' E 139°43'.

Length 72 m; draft 5.9 m.

Type: Cargo ship. MMSI: 431100477.

Date/timePositionNaut miles runAvg speedWind from/ knotsBaromVisibWave heightAir tempDewpointWater temp
2014-Nov-23 09:33N 35°30' E 139°43'0 0.0
2014-Nov-23 08:33N 35°30' E 139°43'0 0.0
2014-Nov-23 07:33N 35°30' E 139°43'0 0.0
2014-Nov-23 06:33N 35°30' E 139°43'0 0.0
2014-Nov-23 05:33N 35°30' E 139°43'0 0.0
2014-Nov-23 04:33N 35°30' E 139°43'0 0.0
2014-Nov-23 03:33N 35°30' E 139°43'0 0.0
2014-Nov-23 02:33N 35°30' E 139°43'0 0.0
2014-Nov-23 01:31N 35°30' E 139°43'0 0.0
2014-Nov-23 00:33N 35°30' E 139°43'0 0.0
2014-Nov-22 23:33N 35°30' E 139°43'0 0.0
2014-Nov-22 22:33N 35°30' E 139°43'0 0.0
2014-Nov-22 21:33N 35°30' E 139°43'4 4.4
2014-Nov-22 20:33N 35°26' E 139°44'2 1.9
2014-Nov-22 19:29N 35°24' E 139°44'0 0.0
2014-Nov-22 18:32N 35°24' E 139°44'0 0.0
2014-Nov-22 17:23N 35°24' E 139°44'0 0.0
2014-Nov-22 16:32N 35°24' E 139°44'7 7.3
2014-Nov-22 15:33N 35°17' E 139°46'2 0.1
2014-Nov-21 04:33N 35°15' E 139°46'1010.1
2014-Nov-21 03:33N 35°25' E 139°44'5 5.0
2014-Nov-21 02:33N 35°30' E 139°43'0 0.4
2014-Nov-21 01:33N 35°30' E 139°43'0 0.0
2014-Nov-21 00:33N 35°30' E 139°43'0 0.0
2014-Nov-20 23:33N 35°30' E 139°43'0 0.0
2014-Nov-20 22:33N 35°30' E 139°43'0 0.0
2014-Nov-20 21:33N 35°30' E 139°43'1 1.0
2014-Nov-20 20:33N 35°29' E 139°43'6 6.2
2014-Nov-20 19:33N 35°23' E 139°45'0 0.0
2014-Nov-20 18:33N 35°23' E 139°45'0 0.0
2014-Nov-20 17:33N 35°23' E 139°44'0 0.0
2014-Nov-20 16:33N 35°23' E 139°44'0 0.0
2014-Nov-20 15:33N 35°23' E 139°44'5 5.4
2014-Nov-20 14:34N 35°18' E 139°45'7 0.2
2014-Nov-19 03:24N 35°11' E 139°46'910.8
2014-Nov-19 02:33N 35°20' E 139°43'1110.0
2014-Nov-19 01:28N 35°30' E 139°46'3 3.2
2014-Nov-19 00:33N 35°30' E 139°43'0 0.0
2014-Nov-18 23:34N 35°30' E 139°43'0 0.0
2014-Nov-18 22:34N 35°30' E 139°43'0 0.0
2014-Nov-18 21:34N 35°30' E 139°43'3 2.8
2014-Nov-18 20:34N 35°27' E 139°43'4 3.8
2014-Nov-18 19:32N 35°24' E 139°45'0 0.0
2014-Nov-18 18:32N 35°24' E 139°44'0 0.0
2014-Nov-18 17:32N 35°24' E 139°45'1 1.3
2014-Nov-18 16:33N 35°23' E 139°44'1210.4
2014-Nov-18 15:22N 35°10' E 139°46'1 0.0
2014-Nov-17 04:15N 35°11' E 139°46'811.0
2014-Nov-17 03:33N 35°18' E 139°44'1010.2
2014-Nov-17 02:33N 35°28' E 139°47'4 3.6
2014-Nov-17 01:33N 35°30' E 139°43'0 0.0
2014-Nov-17 00:33N 35°30' E 139°43'0 0.0
2014-Nov-16 23:33N 35°30' E 139°43'0 0.0
2014-Nov-16 22:33N 35°30' E 139°43'0 0.0
2014-Nov-16 21:33N 35°30' E 139°43'0 0.0
2014-Nov-16 20:33N 35°30' E 139°43'0 0.0
2014-Nov-16 19:33N 35°30' E 139°43'0 0.0
2014-Nov-16 18:33N 35°30' E 139°43'0 0.0
2014-Nov-16 17:33N 35°30' E 139°43'0 0.0
2014-Nov-16 16:33N 35°30' E 139°43'0 0.0
2014-Nov-16 15:33N 35°30' E 139°43'0 0.0
2014-Nov-16 14:33N 35°30' E 139°43'0 0.0
2014-Nov-16 13:33N 35°30' E 139°43'0 0.0
2014-Nov-16 12:33N 35°30' E 139°43'0 0.0
2014-Nov-16 11:33N 35°30' E 139°43'0 0.0
2014-Nov-16 10:33N 35°30' E 139°43'0 0.0
2014-Nov-16 09:33N 35°30' E 139°43'0 0.0
2014-Nov-16 08:33N 35°30' E 139°43'0 0.0
2014-Nov-16 07:33N 35°30' E 139°43'0 0.0
2014-Nov-16 06:33N 35°30' E 139°43'0 0.0
2014-Nov-16 05:33N 35°30' E 139°43'0 0.0
2014-Nov-16 04:33N 35°30' E 139°43'0 0.0
2014-Nov-16 03:33N 35°30' E 139°43'0 0.0
2014-Nov-16 02:33N 35°30' E 139°43'0 0.0
2014-Nov-16 01:33N 35°30' E 139°43'4 3.8
2014-Nov-16 00:33N 35°26' E 139°44'6 5.6
2014-Nov-15 23:33N 35°21' E 139°45'1110.5
2014-Nov-15 22:32N 35°10' E 139°47'1 0.0
2014-Nov-14 09:24N 35°11' E 139°46'910.3
2014-Nov-14 08:33N 35°20' E 139°43'1010.4
2014-Nov-14 07:33N 35°29' E 139°47'4 3.9
2014-Nov-14 06:33N 35°30' E 139°43'0 0.0
2014-Nov-14 05:33N 35°30' E 139°43'0 0.0
2014-Nov-14 04:33N 35°30' E 139°43'0 0.0
2014-Nov-14 03:33N 35°30' E 139°43'4 4.1
2014-Nov-14 02:33N 35°26' E 139°43'3 2.6
2014-Nov-14 01:32N 35°23' E 139°44'0 0.0
2014-Nov-14 00:32N 35°23' E 139°44'0 0.0
2014-Nov-13 23:32N 35°23' E 139°44'8 7.8
2014-Nov-13 22:31N 35°16' E 139°46'  

Dump ship's entire track history